sensor_id;sensor_type;location;lat;lon;timestamp;P1;durP1;ratioP1;P2;durP2;ratioP2
6145;SDS011;3104;50.348;7.620;2022-12-11T00:00:14;27.77;;;19.10;;
6145;SDS011;3104;50.348;7.620;2022-12-11T00:02:39;25.53;;;18.80;;
6145;SDS011;3104;50.348;7.620;2022-12-11T00:05:05;25.90;;;18.50;;
6145;SDS011;3104;50.348;7.620;2022-12-11T00:07:31;27.43;;;18.07;;
6145;SDS011;3104;50.348;7.620;2022-12-11T00:09:56;26.47;;;17.50;;
6145;SDS011;3104;50.348;7.620;2022-12-11T00:12:22;30.23;;;19.60;;
6145;SDS011;3104;50.348;7.620;2022-12-11T00:14:48;26.60;;;18.30;;
6145;SDS011;3104;50.348;7.620;2022-12-11T00:17:13;27.40;;;18.47;;
6145;SDS011;3104;50.348;7.620;2022-12-11T00:19:39;28.03;;;18.17;;
6145;SDS011;3104;50.348;7.620;2022-12-11T00:22:05;28.33;;;20.07;;
6145;SDS011;3104;50.348;7.620;2022-12-11T00:24:30;29.70;;;21.37;;
6145;SDS011;3104;50.348;7.620;2022-12-11T00:26:56;28.87;;;19.70;;
6145;SDS011;3104;50.348;7.620;2022-12-11T00:29:21;28.03;;;20.20;;
6145;SDS011;3104;50.348;7.620;2022-12-11T00:31:47;32.03;;;19.67;;
6145;SDS011;3104;50.348;7.620;2022-12-11T00:34:12;30.03;;;19.63;;
6145;SDS011;3104;50.348;7.620;2022-12-11T00:36:38;24.00;;;19.40;;
6145;SDS011;3104;50.348;7.620;2022-12-11T00:39:04;24.30;;;19.77;;
6145;SDS011;3104;50.348;7.620;2022-12-11T00:41:30;29.50;;;19.07;;
6145;SDS011;3104;50.348;7.620;2022-12-11T00:43:55;25.30;;;17.97;;
6145;SDS011;3104;50.348;7.620;2022-12-11T00:46:21;28.10;;;18.60;;
6145;SDS011;3104;50.348;7.620;2022-12-11T00:48:47;26.13;;;19.07;;
6145;SDS011;3104;50.348;7.620;2022-12-11T00:51:14;30.20;;;18.50;;
6145;SDS011;3104;50.348;7.620;2022-12-11T00:53:40;27.57;;;17.00;;
6145;SDS011;3104;50.348;7.620;2022-12-11T00:56:13;26.40;;;19.63;;
6145;SDS011;3104;50.348;7.620;2022-12-11T00:58:40;28.73;;;19.47;;
6145;SDS011;3104;50.348;7.620;2022-12-11T01:01:07;23.70;;;17.90;;
6145;SDS011;3104;50.348;7.620;2022-12-11T01:03:34;28.87;;;19.27;;
6145;SDS011;3104;50.348;7.620;2022-12-11T01:06:00;24.53;;;18.57;;
6145;SDS011;3104;50.348;7.620;2022-12-11T01:08:25;25.37;;;18.70;;
6145;SDS011;3104;50.348;7.620;2022-12-11T01:10:55;27.33;;;19.40;;
6145;SDS011;3104;50.348;7.620;2022-12-11T01:13:26;26.93;;;20.40;;
6145;SDS011;3104;50.348;7.620;2022-12-11T01:15:51;29.37;;;18.93;;
6145;SDS011;3104;50.348;7.620;2022-12-11T01:18:17;33.93;;;20.57;;
6145;SDS011;3104;50.348;7.620;2022-12-11T01:20:42;22.27;;;18.53;;
6145;SDS011;3104;50.348;7.620;2022-12-11T01:23:09;24.57;;;18.17;;
6145;SDS011;3104;50.348;7.620;2022-12-11T01:25:37;28.97;;;18.80;;
6145;SDS011;3104;50.348;7.620;2022-12-11T01:28:02;25.43;;;18.80;;
6145;SDS011;3104;50.348;7.620;2022-12-11T01:30:29;27.67;;;19.00;;
6145;SDS011;3104;50.348;7.620;2022-12-11T01:32:54;28.07;;;19.07;;
6145;SDS011;3104;50.348;7.620;2022-12-11T01:35:20;26.30;;;19.13;;
6145;SDS011;3104;50.348;7.620;2022-12-11T01:37:46;28.23;;;20.00;;
6145;SDS011;3104;50.348;7.620;2022-12-11T01:40:12;28.00;;;17.97;;
6145;SDS011;3104;50.348;7.620;2022-12-11T01:42:40;27.53;;;20.53;;
6145;SDS011;3104;50.348;7.620;2022-12-11T01:45:15;35.27;;;21.03;;
6145;SDS011;3104;50.348;7.620;2022-12-11T01:50:29;26.90;;;18.80;;
6145;SDS011;3104;50.348;7.620;2022-12-11T01:52:57;25.70;;;17.87;;
6145;SDS011;3104;50.348;7.620;2022-12-11T01:55:23;31.37;;;21.00;;
6145;SDS011;3104;50.348;7.620;2022-12-11T01:57:49;24.90;;;17.53;;
6145;SDS011;3104;50.348;7.620;2022-12-11T02:00:16;23.57;;;17.20;;
6145;SDS011;3104;50.348;7.620;2022-12-11T02:02:42;24.83;;;17.90;;
6145;SDS011;3104;50.348;7.620;2022-12-11T02:05:08;25.23;;;16.90;;
6145;SDS011;3104;50.348;7.620;2022-12-11T02:07:42;22.67;;;17.27;;
6145;SDS011;3104;50.348;7.620;2022-12-11T02:10:10;24.77;;;17.47;;
6145;SDS011;3104;50.348;7.620;2022-12-11T02:12:38;26.07;;;17.30;;
6145;SDS011;3104;50.348;7.620;2022-12-11T02:15:16;24.90;;;16.67;;
6145;SDS011;3104;50.348;7.620;2022-12-11T02:23:52;22.77;;;16.57;;
6145;SDS011;3104;50.348;7.620;2022-12-11T02:29:52;23.30;;;15.30;;
6145;SDS011;3104;50.348;7.620;2022-12-11T02:32:46;21.90;;;15.97;;
6145;SDS011;3104;50.348;7.620;2022-12-11T02:35:18;25.27;;;16.53;;
6145;SDS011;3104;50.348;7.620;2022-12-11T02:37:50;24.73;;;15.23;;
6145;SDS011;3104;50.348;7.620;2022-12-11T02:40:22;20.37;;;14.03;;
6145;SDS011;3104;50.348;7.620;2022-12-11T02:42:52;20.53;;;15.30;;
6145;SDS011;3104;50.348;7.620;2022-12-11T02:45:19;20.70;;;14.77;;
6145;SDS011;3104;50.348;7.620;2022-12-11T02:47:47;20.17;;;15.10;;
6145;SDS011;3104;50.348;7.620;2022-12-11T02:50:15;21.27;;;14.33;;
6145;SDS011;3104;50.348;7.620;2022-12-11T02:52:43;21.00;;;14.90;;
6145;SDS011;3104;50.348;7.620;2022-12-11T02:55:12;22.30;;;14.93;;
6145;SDS011;3104;50.348;7.620;2022-12-11T02:57:47;18.27;;;13.43;;
6145;SDS011;3104;50.348;7.620;2022-12-11T03:00:16;18.07;;;14.67;;
6145;SDS011;3104;50.348;7.620;2022-12-11T03:02:43;25.67;;;16.30;;
6145;SDS011;3104;50.348;7.620;2022-12-11T03:05:09;18.93;;;14.60;;
6145;SDS011;3104;50.348;7.620;2022-12-11T03:07:37;22.73;;;15.93;;
6145;SDS011;3104;50.348;7.620;2022-12-11T03:10:05;22.73;;;15.00;;
6145;SDS011;3104;50.348;7.620;2022-12-11T03:12:33;20.00;;;13.97;;
6145;SDS011;3104;50.348;7.620;2022-12-11T03:15:04;24.90;;;14.27;;
6145;SDS011;3104;50.348;7.620;2022-12-11T03:20:23;21.00;;;14.53;;
6145;SDS011;3104;50.348;7.620;2022-12-11T03:24:01;20.73;;;14.30;;
6145;SDS011;3104;50.348;7.620;2022-12-11T03:25:56;21.87;;;15.40;;
6145;SDS011;3104;50.348;7.620;2022-12-11T03:28:28;23.80;;;15.47;;
6145;SDS011;3104;50.348;7.620;2022-12-11T03:31:08;22.60;;;14.37;;
6145;SDS011;3104;50.348;7.620;2022-12-11T03:33:45;19.97;;;14.93;;
6145;SDS011;3104;50.348;7.620;2022-12-11T03:36:17;23.73;;;15.50;;
6145;SDS011;3104;50.348;7.620;2022-12-11T03:38:49;20.47;;;15.70;;
6145;SDS011;3104;50.348;7.620;2022-12-11T03:41:19;24.07;;;15.10;;
6145;SDS011;3104;50.348;7.620;2022-12-11T03:43:47;20.97;;;14.57;;
6145;SDS011;3104;50.348;7.620;2022-12-11T03:46:15;24.63;;;16.20;;
6145;SDS011;3104;50.348;7.620;2022-12-11T03:48:45;21.00;;;14.73;;
6145;SDS011;3104;50.348;7.620;2022-12-11T03:51:12;24.87;;;16.50;;
6145;SDS011;3104;50.348;7.620;2022-12-11T03:53:40;23.60;;;15.90;;
6145;SDS011;3104;50.348;7.620;2022-12-11T03:56:08;23.43;;;15.50;;
6145;SDS011;3104;50.348;7.620;2022-12-11T03:58:35;25.60;;;15.87;;
6145;SDS011;3104;50.348;7.620;2022-12-11T04:01:01;24.73;;;16.30;;
6145;SDS011;3104;50.348;7.620;2022-12-11T04:03:26;22.57;;;15.90;;
6145;SDS011;3104;50.348;7.620;2022-12-11T04:05:53;21.93;;;16.37;;
6145;SDS011;3104;50.348;7.620;2022-12-11T04:08:20;21.90;;;15.00;;
6145;SDS011;3104;50.348;7.620;2022-12-11T04:10:47;20.90;;;14.23;;
6145;SDS011;3104;50.348;7.620;2022-12-11T04:13:33;18.73;;;14.50;;
6145;SDS011;3104;50.348;7.620;2022-12-11T04:15:59;25.30;;;15.50;;
6145;SDS011;3104;50.348;7.620;2022-12-11T04:18:25;20.00;;;14.47;;
6145;SDS011;3104;50.348;7.620;2022-12-11T04:21:09;21.87;;;15.63;;
6145;SDS011;3104;50.348;7.620;2022-12-11T04:23:53;21.10;;;15.07;;
6145;SDS011;3104;50.348;7.620;2022-12-11T04:26:37;22.87;;;16.00;;
6145;SDS011;3104;50.348;7.620;2022-12-11T04:29:03;23.90;;;15.40;;
6145;SDS011;3104;50.348;7.620;2022-12-11T04:31:28;22.90;;;15.23;;
6145;SDS011;3104;50.348;7.620;2022-12-11T04:33:54;22.00;;;15.13;;
6145;SDS011;3104;50.348;7.620;2022-12-11T04:36:20;25.20;;;15.03;;
6145;SDS011;3104;50.348;7.620;2022-12-11T04:38:45;24.73;;;15.67;;
6145;SDS011;3104;50.348;7.620;2022-12-11T04:41:11;23.57;;;16.10;;
6145;SDS011;3104;50.348;7.620;2022-12-11T04:43:38;20.77;;;13.87;;
6145;SDS011;3104;50.348;7.620;2022-12-11T04:46:08;27.77;;;15.50;;
6145;SDS011;3104;50.348;7.620;2022-12-11T04:48:39;22.33;;;14.83;;
6145;SDS011;3104;50.348;7.620;2022-12-11T04:51:05;20.60;;;14.77;;
6145;SDS011;3104;50.348;7.620;2022-12-11T04:53:31;23.27;;;14.63;;
6145;SDS011;3104;50.348;7.620;2022-12-11T04:55:57;22.13;;;15.60;;
6145;SDS011;3104;50.348;7.620;2022-12-11T04:58:23;24.77;;;16.70;;
6145;SDS011;3104;50.348;7.620;2022-12-11T05:00:49;24.10;;;15.60;;
6145;SDS011;3104;50.348;7.620;2022-12-11T05:03:15;22.53;;;16.80;;
6145;SDS011;3104;50.348;7.620;2022-12-11T05:05:46;23.90;;;16.40;;
6145;SDS011;3104;50.348;7.620;2022-12-11T05:08:18;22.70;;;16.70;;
6145;SDS011;3104;50.348;7.620;2022-12-11T05:10:53;24.83;;;16.43;;
6145;SDS011;3104;50.348;7.620;2022-12-11T05:13:21;25.30;;;16.27;;
6145;SDS011;3104;50.348;7.620;2022-12-11T05:15:46;23.07;;;16.07;;
6145;SDS011;3104;50.348;7.620;2022-12-11T05:18:12;28.13;;;16.73;;
6145;SDS011;3104;50.348;7.620;2022-12-11T05:20:37;28.03;;;17.50;;
6145;SDS011;3104;50.348;7.620;2022-12-11T05:23:03;23.60;;;15.37;;
6145;SDS011;3104;50.348;7.620;2022-12-11T05:25:28;23.63;;;15.90;;
6145;SDS011;3104;50.348;7.620;2022-12-11T05:27:54;24.60;;;15.37;;
6145;SDS011;3104;50.348;7.620;2022-12-11T05:30:19;27.17;;;16.47;;
6145;SDS011;3104;50.348;7.620;2022-12-11T05:32:45;24.07;;;15.20;;
6145;SDS011;3104;50.348;7.620;2022-12-11T05:35:11;23.67;;;16.50;;
6145;SDS011;3104;50.348;7.620;2022-12-11T05:37:36;23.47;;;15.33;;
6145;SDS011;3104;50.348;7.620;2022-12-11T05:40:02;25.43;;;16.17;;
6145;SDS011;3104;50.348;7.620;2022-12-11T05:42:30;20.07;;;13.77;;
6145;SDS011;3104;50.348;7.620;2022-12-11T05:44:56;24.60;;;15.73;;
6145;SDS011;3104;50.348;7.620;2022-12-11T05:47:22;26.70;;;16.50;;
6145;SDS011;3104;50.348;7.620;2022-12-11T05:49:47;20.10;;;15.10;;
6145;SDS011;3104;50.348;7.620;2022-12-11T05:52:13;26.83;;;16.87;;
6145;SDS011;3104;50.348;7.620;2022-12-11T05:54:40;22.80;;;15.93;;
6145;SDS011;3104;50.348;7.620;2022-12-11T05:57:06;23.53;;;15.60;;
6145;SDS011;3104;50.348;7.620;2022-12-11T05:59:31;25.40;;;15.60;;
6145;SDS011;3104;50.348;7.620;2022-12-11T06:01:57;23.43;;;15.93;;
6145;SDS011;3104;50.348;7.620;2022-12-11T06:04:23;22.00;;;15.43;;
6145;SDS011;3104;50.348;7.620;2022-12-11T06:06:48;26.10;;;16.57;;
6145;SDS011;3104;50.348;7.620;2022-12-11T06:09:14;24.57;;;16.60;;
6145;SDS011;3104;50.348;7.620;2022-12-11T06:11:40;27.20;;;18.40;;
6145;SDS011;3104;50.348;7.620;2022-12-11T06:14:06;23.20;;;15.50;;
6145;SDS011;3104;50.348;7.620;2022-12-11T06:16:33;27.30;;;18.27;;
6145;SDS011;3104;50.348;7.620;2022-12-11T06:18:59;25.00;;;18.20;;
6145;SDS011;3104;50.348;7.620;2022-12-11T06:21:26;31.30;;;19.40;;
6145;SDS011;3104;50.348;7.620;2022-12-11T06:23:54;26.80;;;16.40;;
6145;SDS011;3104;50.348;7.620;2022-12-11T06:26:21;24.37;;;17.83;;
6145;SDS011;3104;50.348;7.620;2022-12-11T06:28:47;20.63;;;15.27;;
6145;SDS011;3104;50.348;7.620;2022-12-11T06:31:13;22.60;;;14.83;;
6145;SDS011;3104;50.348;7.620;2022-12-11T06:33:39;26.83;;;14.83;;
6145;SDS011;3104;50.348;7.620;2022-12-11T06:36:06;22.50;;;16.37;;
6145;SDS011;3104;50.348;7.620;2022-12-11T06:38:37;24.50;;;16.50;;
6145;SDS011;3104;50.348;7.620;2022-12-11T06:41:04;34.33;;;18.93;;
6145;SDS011;3104;50.348;7.620;2022-12-11T06:43:30;23.77;;;16.30;;
6145;SDS011;3104;50.348;7.620;2022-12-11T06:46:07;25.13;;;16.90;;
6145;SDS011;3104;50.348;7.620;2022-12-11T06:48:34;29.47;;;16.40;;
6145;SDS011;3104;50.348;7.620;2022-12-11T06:51:03;24.20;;;15.87;;
6145;SDS011;3104;50.348;7.620;2022-12-11T06:53:34;25.13;;;17.20;;
6145;SDS011;3104;50.348;7.620;2022-12-11T06:56:03;25.13;;;16.47;;
6145;SDS011;3104;50.348;7.620;2022-12-11T06:58:32;24.30;;;15.63;;
6145;SDS011;3104;50.348;7.620;2022-12-11T07:00:59;36.37;;;28.87;;
6145;SDS011;3104;50.348;7.620;2022-12-11T07:03:25;43.63;;;36.03;;
6145;SDS011;3104;50.348;7.620;2022-12-11T07:05:51;30.40;;;21.47;;
6145;SDS011;3104;50.348;7.620;2022-12-11T07:08:17;25.07;;;16.90;;
6145;SDS011;3104;50.348;7.620;2022-12-11T07:10:42;23.07;;;16.40;;
6145;SDS011;3104;50.348;7.620;2022-12-11T07:13:08;24.43;;;17.37;;
6145;SDS011;3104;50.348;7.620;2022-12-11T07:15:34;24.80;;;16.83;;
6145;SDS011;3104;50.348;7.620;2022-12-11T07:18:00;23.53;;;17.63;;
6145;SDS011;3104;50.348;7.620;2022-12-11T07:20:26;23.63;;;15.70;;
6145;SDS011;3104;50.348;7.620;2022-12-11T07:22:52;25.63;;;15.67;;
6145;SDS011;3104;50.348;7.620;2022-12-11T07:25:18;25.23;;;16.10;;
6145;SDS011;3104;50.348;7.620;2022-12-11T07:27:43;23.20;;;17.70;;
6145;SDS011;3104;50.348;7.620;2022-12-11T07:30:09;25.00;;;18.13;;
6145;SDS011;3104;50.348;7.620;2022-12-11T07:32:36;27.00;;;17.90;;
6145;SDS011;3104;50.348;7.620;2022-12-11T07:35:02;28.00;;;19.47;;
6145;SDS011;3104;50.348;7.620;2022-12-11T07:37:28;25.97;;;19.00;;
6145;SDS011;3104;50.348;7.620;2022-12-11T07:39:53;26.73;;;18.57;;
6145;SDS011;3104;50.348;7.620;2022-12-11T07:42:19;24.53;;;16.67;;
6145;SDS011;3104;50.348;7.620;2022-12-11T07:44:44;24.67;;;19.00;;
6145;SDS011;3104;50.348;7.620;2022-12-11T07:47:10;27.50;;;16.90;;
6145;SDS011;3104;50.348;7.620;2022-12-11T07:49:36;27.03;;;17.53;;
6145;SDS011;3104;50.348;7.620;2022-12-11T07:52:02;29.30;;;19.50;;
6145;SDS011;3104;50.348;7.620;2022-12-11T07:54:28;24.97;;;18.53;;
6145;SDS011;3104;50.348;7.620;2022-12-11T07:56:53;25.13;;;16.60;;
6145;SDS011;3104;50.348;7.620;2022-12-11T07:59:19;27.67;;;16.83;;
6145;SDS011;3104;50.348;7.620;2022-12-11T08:01:45;35.13;;;19.47;;
6145;SDS011;3104;50.348;7.620;2022-12-11T08:04:10;33.40;;;19.37;;
6145;SDS011;3104;50.348;7.620;2022-12-11T08:06:39;27.97;;;18.43;;
6145;SDS011;3104;50.348;7.620;2022-12-11T08:09:07;30.10;;;18.17;;
6145;SDS011;3104;50.348;7.620;2022-12-11T08:11:34;31.63;;;18.43;;
6145;SDS011;3104;50.348;7.620;2022-12-11T08:14:00;26.40;;;16.97;;
6145;SDS011;3104;50.348;7.620;2022-12-11T08:16:26;24.63;;;16.77;;
6145;SDS011;3104;50.348;7.620;2022-12-11T08:18:52;24.53;;;15.67;;
6145;SDS011;3104;50.348;7.620;2022-12-11T08:21:20;25.33;;;17.67;;
6145;SDS011;3104;50.348;7.620;2022-12-11T08:23:50;25.17;;;17.80;;
6145;SDS011;3104;50.348;7.620;2022-12-11T08:26:18;25.57;;;17.43;;
6145;SDS011;3104;50.348;7.620;2022-12-11T08:28:52;26.00;;;16.57;;
6145;SDS011;3104;50.348;7.620;2022-12-11T08:31:18;26.63;;;16.80;;
6145;SDS011;3104;50.348;7.620;2022-12-11T08:33:43;26.10;;;18.17;;
6145;SDS011;3104;50.348;7.620;2022-12-11T08:36:11;27.30;;;16.20;;
6145;SDS011;3104;50.348;7.620;2022-12-11T08:38:38;22.93;;;15.33;;
6145;SDS011;3104;50.348;7.620;2022-12-11T08:41:10;25.80;;;15.60;;
6145;SDS011;3104;50.348;7.620;2022-12-11T08:43:40;22.07;;;14.73;;
6145;SDS011;3104;50.348;7.620;2022-12-11T08:46:07;24.30;;;14.70;;
6145;SDS011;3104;50.348;7.620;2022-12-11T08:48:34;25.57;;;14.90;;
6145;SDS011;3104;50.348;7.620;2022-12-11T08:51:02;22.27;;;16.47;;
6145;SDS011;3104;50.348;7.620;2022-12-11T08:53:29;26.40;;;17.13;;
6145;SDS011;3104;50.348;7.620;2022-12-11T08:56:05;28.40;;;17.10;;
6145;SDS011;3104;50.348;7.620;2022-12-11T08:58:32;27.23;;;17.07;;
6145;SDS011;3104;50.348;7.620;2022-12-11T09:00:58;27.53;;;16.27;;
6145;SDS011;3104;50.348;7.620;2022-12-11T09:03:24;28.10;;;16.30;;
6145;SDS011;3104;50.348;7.620;2022-12-11T09:05:50;24.30;;;15.07;;
6145;SDS011;3104;50.348;7.620;2022-12-11T09:08:16;24.20;;;16.23;;
6145;SDS011;3104;50.348;7.620;2022-12-11T09:10:42;27.87;;;16.80;;
6145;SDS011;3104;50.348;7.620;2022-12-11T09:13:07;25.70;;;17.47;;
6145;SDS011;3104;50.348;7.620;2022-12-11T09:15:33;33.73;;;20.37;;
6145;SDS011;3104;50.348;7.620;2022-12-11T09:17:58;23.80;;;15.63;;
6145;SDS011;3104;50.348;7.620;2022-12-11T09:20:24;25.70;;;15.93;;
6145;SDS011;3104;50.348;7.620;2022-12-11T09:22:49;23.67;;;17.37;;
6145;SDS011;3104;50.348;7.620;2022-12-11T09:25:15;25.63;;;17.37;;
6145;SDS011;3104;50.348;7.620;2022-12-11T09:27:41;28.43;;;16.83;;
6145;SDS011;3104;50.348;7.620;2022-12-11T09:30:06;24.63;;;17.40;;
6145;SDS011;3104;50.348;7.620;2022-12-11T09:32:32;23.63;;;15.90;;
6145;SDS011;3104;50.348;7.620;2022-12-11T09:34:58;26.07;;;17.60;;
6145;SDS011;3104;50.348;7.620;2022-12-11T09:37:24;24.10;;;16.60;;
6145;SDS011;3104;50.348;7.620;2022-12-11T09:39:49;24.70;;;15.57;;
6145;SDS011;3104;50.348;7.620;2022-12-11T09:42:17;27.60;;;16.83;;
6145;SDS011;3104;50.348;7.620;2022-12-11T09:44:58;25.67;;;15.67;;
6145;SDS011;3104;50.348;7.620;2022-12-11T09:47:33;28.03;;;15.03;;
6145;SDS011;3104;50.348;7.620;2022-12-11T09:52:39;20.47;;;14.70;;
6145;SDS011;3104;50.348;7.620;2022-12-11T09:55:21;26.20;;;16.97;;
6145;SDS011;3104;50.348;7.620;2022-12-11T10:00:38;23.53;;;15.47;;
6145;SDS011;3104;50.348;7.620;2022-12-11T10:17:11;23.27;;;14.70;;
6145;SDS011;3104;50.348;7.620;2022-12-11T10:19:43;22.00;;;15.77;;
6145;SDS011;3104;50.348;7.620;2022-12-11T10:25:13;25.57;;;16.57;;
6145;SDS011;3104;50.348;7.620;2022-12-11T10:27:45;28.87;;;16.63;;
6145;SDS011;3104;50.348;7.620;2022-12-11T10:30:13;23.23;;;15.93;;
6145;SDS011;3104;50.348;7.620;2022-12-11T10:38:11;23.40;;;14.50;;
6145;SDS011;3104;50.348;7.620;2022-12-11T10:40:44;24.40;;;15.33;;
6145;SDS011;3104;50.348;7.620;2022-12-11T10:43:11;23.80;;;14.50;;
6145;SDS011;3104;50.348;7.620;2022-12-11T10:45:37;25.87;;;16.50;;
6145;SDS011;3104;50.348;7.620;2022-12-11T10:48:04;20.07;;;14.50;;
6145;SDS011;3104;50.348;7.620;2022-12-11T10:50:33;24.07;;;14.63;;
6145;SDS011;3104;50.348;7.620;2022-12-11T10:52:59;23.80;;;15.50;;
6145;SDS011;3104;50.348;7.620;2022-12-11T10:55:26;24.90;;;14.23;;
6145;SDS011;3104;50.348;7.620;2022-12-11T10:58:02;22.47;;;14.17;;
6145;SDS011;3104;50.348;7.620;2022-12-11T11:00:32;19.47;;;13.83;;
6145;SDS011;3104;50.348;7.620;2022-12-11T11:03:16;26.23;;;14.90;;
6145;SDS011;3104;50.348;7.620;2022-12-11T11:05:47;19.60;;;13.73;;
6145;SDS011;3104;50.348;7.620;2022-12-11T11:08:18;17.53;;;11.43;;
6145;SDS011;3104;50.348;7.620;2022-12-11T11:13:14;20.37;;;13.77;;
6145;SDS011;3104;50.348;7.620;2022-12-11T11:15:40;19.23;;;11.87;;
6145;SDS011;3104;50.348;7.620;2022-12-11T11:18:10;20.40;;;14.43;;
6145;SDS011;3104;50.348;7.620;2022-12-11T11:20:43;17.67;;;12.80;;
6145;SDS011;3104;50.348;7.620;2022-12-11T11:23:13;21.27;;;13.40;;
6145;SDS011;3104;50.348;7.620;2022-12-11T11:25:46;17.07;;;11.93;;
6145;SDS011;3104;50.348;7.620;2022-12-11T11:28:24;20.97;;;12.60;;
6145;SDS011;3104;50.348;7.620;2022-12-11T11:31:03;17.00;;;11.90;;
6145;SDS011;3104;50.348;7.620;2022-12-11T11:33:43;18.27;;;12.30;;
6145;SDS011;3104;50.348;7.620;2022-12-11T11:36:31;19.03;;;11.90;;
6145;SDS011;3104;50.348;7.620;2022-12-11T11:44:26;18.00;;;12.20;;
6145;SDS011;3104;50.348;7.620;2022-12-11T11:47:00;15.77;;;10.70;;
6145;SDS011;3104;50.348;7.620;2022-12-11T11:50:18;19.40;;;12.97;;
6145;SDS011;3104;50.348;7.620;2022-12-11T11:52:35;24.17;;;17.17;;
6145;SDS011;3104;50.348;7.620;2022-12-11T11:58:13;15.47;;;12.37;;
6145;SDS011;3104;50.348;7.620;2022-12-11T12:00:43;18.73;;;12.73;;
6145;SDS011;3104;50.348;7.620;2022-12-11T12:03:10;19.00;;;12.83;;
6145;SDS011;3104;50.348;7.620;2022-12-11T12:05:44;19.63;;;13.90;;
6145;SDS011;3104;50.348;7.620;2022-12-11T12:11:34;19.80;;;13.03;;
6145;SDS011;3104;50.348;7.620;2022-12-11T12:28:19;20.17;;;12.73;;
6145;SDS011;3104;50.348;7.620;2022-12-11T12:36:36;19.00;;;12.07;;
6145;SDS011;3104;50.348;7.620;2022-12-11T12:39:39;19.03;;;12.77;;
6145;SDS011;3104;50.348;7.620;2022-12-11T12:42:36;23.90;;;15.77;;
6145;SDS011;3104;50.348;7.620;2022-12-11T12:45:24;35.90;;;25.93;;
6145;SDS011;3104;50.348;7.620;2022-12-11T12:47:52;22.27;;;14.23;;
6145;SDS011;3104;50.348;7.620;2022-12-11T12:50:21;19.77;;;13.20;;
6145;SDS011;3104;50.348;7.620;2022-12-11T12:52:51;18.07;;;12.97;;
6145;SDS011;3104;50.348;7.620;2022-12-11T12:55:19;16.53;;;11.60;;
6145;SDS011;3104;50.348;7.620;2022-12-11T12:57:54;17.13;;;12.27;;
6145;SDS011;3104;50.348;7.620;2022-12-11T13:02:53;17.33;;;11.53;;
6145;SDS011;3104;50.348;7.620;2022-12-11T13:05:29;19.40;;;12.10;;
6145;SDS011;3104;50.348;7.620;2022-12-11T13:07:59;18.13;;;12.93;;
6145;SDS011;3104;50.348;7.620;2022-12-11T13:12:57;20.83;;;12.30;;
6145;SDS011;3104;50.348;7.620;2022-12-11T13:15:32;19.97;;;13.10;;
6145;SDS011;3104;50.348;7.620;2022-12-11T13:18:01;17.43;;;12.30;;
6145;SDS011;3104;50.348;7.620;2022-12-11T13:20:31;18.07;;;12.07;;
6145;SDS011;3104;50.348;7.620;2022-12-11T13:28:51;20.73;;;13.50;;
6145;SDS011;3104;50.348;7.620;2022-12-11T13:33:47;21.30;;;15.77;;
6145;SDS011;3104;50.348;7.620;2022-12-11T13:36:25;19.80;;;14.50;;
6145;SDS011;3104;50.348;7.620;2022-12-11T13:38:57;16.93;;;12.40;;
6145;SDS011;3104;50.348;7.620;2022-12-11T13:41:26;15.90;;;11.97;;
6145;SDS011;3104;50.348;7.620;2022-12-11T13:43:52;17.83;;;12.20;;
6145;SDS011;3104;50.348;7.620;2022-12-11T13:46:23;16.83;;;12.93;;
6145;SDS011;3104;50.348;7.620;2022-12-11T13:48:58;17.90;;;12.20;;
6145;SDS011;3104;50.348;7.620;2022-12-11T13:51:27;19.53;;;13.47;;
6145;SDS011;3104;50.348;7.620;2022-12-11T13:54:28;19.17;;;12.07;;
6145;SDS011;3104;50.348;7.620;2022-12-11T13:56:58;18.77;;;12.33;;
6145;SDS011;3104;50.348;7.620;2022-12-11T13:59:39;16.13;;;13.20;;
6145;SDS011;3104;50.348;7.620;2022-12-11T14:02:18;17.27;;;11.60;;
6145;SDS011;3104;50.348;7.620;2022-12-11T14:04:53;16.83;;;10.70;;
6145;SDS011;3104;50.348;7.620;2022-12-11T14:10:15;14.00;;;9.57;;
6145;SDS011;3104;50.348;7.620;2022-12-11T14:12:46;15.83;;;11.10;;
6145;SDS011;3104;50.348;7.620;2022-12-11T14:15:21;16.07;;;10.13;;
6145;SDS011;3104;50.348;7.620;2022-12-11T14:17:47;15.47;;;11.70;;
6145;SDS011;3104;50.348;7.620;2022-12-11T14:20:18;15.30;;;9.43;;
6145;SDS011;3104;50.348;7.620;2022-12-11T14:22:46;17.47;;;10.90;;
6145;SDS011;3104;50.348;7.620;2022-12-11T14:25:20;12.13;;;9.20;;
6145;SDS011;3104;50.348;7.620;2022-12-11T14:27:53;16.43;;;11.70;;
6145;SDS011;3104;50.348;7.620;2022-12-11T14:30:21;17.30;;;11.73;;
6145;SDS011;3104;50.348;7.620;2022-12-11T14:32:49;16.17;;;12.13;;
6145;SDS011;3104;50.348;7.620;2022-12-11T14:37:59;18.33;;;13.60;;
6145;SDS011;3104;50.348;7.620;2022-12-11T14:40:34;16.47;;;12.30;;
6145;SDS011;3104;50.348;7.620;2022-12-11T14:43:11;15.80;;;11.00;;
6145;SDS011;3104;50.348;7.620;2022-12-11T14:45:45;17.23;;;10.87;;
6145;SDS011;3104;50.348;7.620;2022-12-11T14:48:17;21.07;;;13.40;;
6145;SDS011;3104;50.348;7.620;2022-12-11T14:50:48;17.13;;;10.60;;
6145;SDS011;3104;50.348;7.620;2022-12-11T14:53:18;23.03;;;15.13;;
6145;SDS011;3104;50.348;7.620;2022-12-11T14:55:47;22.20;;;14.67;;
6145;SDS011;3104;50.348;7.620;2022-12-11T14:58:15;22.70;;;14.97;;
6145;SDS011;3104;50.348;7.620;2022-12-11T15:00:54;16.77;;;12.00;;
6145;SDS011;3104;50.348;7.620;2022-12-11T15:06:01;19.90;;;14.80;;
6145;SDS011;3104;50.348;7.620;2022-12-11T15:08:45;20.27;;;14.17;;
6145;SDS011;3104;50.348;7.620;2022-12-11T15:11:12;19.37;;;13.70;;
6145;SDS011;3104;50.348;7.620;2022-12-11T15:13:56;19.67;;;13.30;;
6145;SDS011;3104;50.348;7.620;2022-12-11T15:16:25;16.80;;;12.07;;
6145;SDS011;3104;50.348;7.620;2022-12-11T15:18:52;16.87;;;11.70;;
6145;SDS011;3104;50.348;7.620;2022-12-11T15:21:26;16.17;;;11.30;;
6145;SDS011;3104;50.348;7.620;2022-12-11T15:23:58;15.70;;;12.13;;
6145;SDS011;3104;50.348;7.620;2022-12-11T15:26:37;13.77;;;9.47;;
6145;SDS011;3104;50.348;7.620;2022-12-11T15:31:59;14.43;;;9.47;;
6145;SDS011;3104;50.348;7.620;2022-12-11T15:34:30;13.77;;;9.30;;
6145;SDS011;3104;50.348;7.620;2022-12-11T15:36:58;12.47;;;8.90;;
6145;SDS011;3104;50.348;7.620;2022-12-11T15:39:23;12.47;;;8.63;;
6145;SDS011;3104;50.348;7.620;2022-12-11T15:41:49;16.47;;;10.07;;
6145;SDS011;3104;50.348;7.620;2022-12-11T15:44:16;13.43;;;9.90;;
6145;SDS011;3104;50.348;7.620;2022-12-11T15:46:45;13.80;;;9.70;;
6145;SDS011;3104;50.348;7.620;2022-12-11T15:49:11;15.77;;;10.77;;
6145;SDS011;3104;50.348;7.620;2022-12-11T15:51:37;12.50;;;8.97;;
6145;SDS011;3104;50.348;7.620;2022-12-11T15:54:03;17.00;;;12.57;;
6145;SDS011;3104;50.348;7.620;2022-12-11T15:56:29;16.70;;;12.40;;
6145;SDS011;3104;50.348;7.620;2022-12-11T15:58:54;17.30;;;14.73;;
6145;SDS011;3104;50.348;7.620;2022-12-11T16:01:26;17.40;;;11.90;;
6145;SDS011;3104;50.348;7.620;2022-12-11T16:03:52;15.63;;;11.90;;
6145;SDS011;3104;50.348;7.620;2022-12-11T16:06:17;16.63;;;11.00;;
6145;SDS011;3104;50.348;7.620;2022-12-11T16:08:43;15.90;;;12.40;;
6145;SDS011;3104;50.348;7.620;2022-12-11T16:11:11;17.13;;;12.27;;
6145;SDS011;3104;50.348;7.620;2022-12-11T16:13:37;15.60;;;11.40;;
6145;SDS011;3104;50.348;7.620;2022-12-11T16:16:03;14.53;;;9.97;;
6145;SDS011;3104;50.348;7.620;2022-12-11T16:18:29;15.33;;;10.97;;
6145;SDS011;3104;50.348;7.620;2022-12-11T16:20:55;14.10;;;10.27;;
6145;SDS011;3104;50.348;7.620;2022-12-11T16:23:21;13.73;;;8.33;;
6145;SDS011;3104;50.348;7.620;2022-12-11T16:25:46;16.07;;;10.17;;
6145;SDS011;3104;50.348;7.620;2022-12-11T16:28:13;13.87;;;9.90;;
6145;SDS011;3104;50.348;7.620;2022-12-11T16:30:42;17.97;;;10.63;;
6145;SDS011;3104;50.348;7.620;2022-12-11T16:33:08;16.37;;;10.43;;
6145;SDS011;3104;50.348;7.620;2022-12-11T16:35:34;19.67;;;11.27;;
6145;SDS011;3104;50.348;7.620;2022-12-11T16:38:00;14.83;;;10.70;;
6145;SDS011;3104;50.348;7.620;2022-12-11T16:40:25;13.63;;;9.63;;